createdAt,value
2023-02-06T00:04:32.780Z,54.37
2023-02-06T00:09:34.507Z,73.10
2023-02-06T00:14:36.172Z,76.63
2023-02-06T00:19:38.141Z,72.83
2023-02-06T00:24:40.898Z,79.37
2023-02-06T00:29:44.923Z,62.53
2023-02-06T00:34:48.785Z,42.27
2023-02-06T00:39:50.750Z,50.60
2023-02-06T00:44:52.479Z,65.07
2023-02-06T00:49:54.464Z,54.97
2023-02-06T00:54:56.125Z,64.57
2023-02-06T00:59:58.075Z,44.90
2023-02-06T01:05:01.995Z,44.30
2023-02-06T01:10:09.574Z,63.93
2023-02-06T01:15:12.552Z,42.57
2023-02-06T01:20:16.347Z,64.63
2023-02-06T02:06:08.864Z,40.13
2023-02-06T02:18:09.116Z,35.70
2023-02-06T02:23:16.609Z,31.13
2023-02-06T02:28:32.680Z,37.57
2023-02-06T02:33:56.126Z,33.13
2023-02-06T02:39:06.381Z,61.00
2023-02-06T02:44:21.739Z,40.00
2023-02-06T02:49:30.153Z,40.93
2023-02-06T02:54:37.049Z,32.87
2023-02-06T02:59:44.970Z,53.57
2023-02-06T03:05:04.277Z,50.20
2023-02-06T03:10:10.480Z,51.03
2023-02-06T03:15:34.420Z,56.63
2023-02-06T03:20:40.326Z,57.73
2023-02-06T03:25:45.336Z,57.80
2023-02-06T03:30:49.300Z,53.13
2023-02-06T03:35:59.472Z,46.57
2023-02-06T03:41:04.414Z,46.97
2023-02-06T03:46:12.586Z,63.27
2023-02-06T03:51:46.920Z,54.10
2023-02-06T03:56:53.941Z,48.63
2023-02-06T04:02:00.806Z,42.90
2023-02-06T04:07:15.400Z,36.33
2023-02-06T04:12:22.470Z,37.97
2023-02-06T04:17:43.143Z,38.57
2023-02-06T04:22:48.852Z,32.00
2023-02-06T04:27:50.701Z,38.87
2023-02-06T04:32:52.404Z,28.63
2023-02-06T04:37:56.509Z,41.63
2023-02-06T04:42:59.618Z,36.77
2023-02-06T04:48:01.273Z,30.63
2023-02-06T04:53:06.005Z,45.00
2023-02-06T04:58:11.342Z,52.17
2023-02-06T05:03:12.960Z,54.30
2023-02-06T05:08:16.699Z,57.97
2023-02-06T05:13:23.342Z,84.63
2023-02-06T05:18:27.547Z,52.57
2023-02-06T05:23:29.316Z,56.97
2023-02-06T05:28:33.579Z,70.33
2023-02-06T05:33:37.549Z,64.93
2023-02-06T05:38:41.467Z,48.33
2023-02-06T05:43:45.305Z,65.93
2023-02-06T05:48:52.358Z,51.50
2023-02-06T05:53:56.561Z,66.67
2023-02-06T05:58:58.343Z,54.97
2023-02-06T06:04:02.573Z,58.17
2023-02-06T06:09:04.640Z,61.60
2023-02-06T06:14:06.380Z,72.63
2023-02-06T06:19:08.325Z,50.13
2023-02-06T06:24:12.431Z,34.47
2023-02-06T06:29:14.183Z,69.03
2023-02-06T06:34:18.619Z,69.73
2023-02-06T06:39:22.531Z,67.30
2023-02-06T06:44:24.252Z,56.63
2023-02-06T06:49:29.075Z,59.63
2023-02-06T06:54:30.882Z,59.23
2023-02-06T06:59:34.846Z,74.40
2023-02-06T07:04:38.971Z,73.10
2023-02-06T07:09:42.894Z,81.63
2023-02-06T07:14:44.586Z,95.28
2023-02-06T07:19:48.173Z,80.20
2023-02-06T07:24:49.884Z,102.60
2023-02-06T07:29:51.613Z,102.60
2023-02-06T07:34:53.308Z,77.97
2023-02-06T07:39:59.004Z,90.73
2023-02-06T07:45:06.281Z,101.40
2023-02-06T07:50:10.900Z,93.40
2023-02-06T07:55:16.953Z,127.60
2023-02-06T08:00:22.406Z,101.13
2023-02-06T08:05:32.168Z,91.40
2023-02-06T08:10:33.935Z,84.00
2023-02-06T08:15:41.211Z,95.93
2023-02-06T08:20:42.987Z,118.20
2023-02-06T08:25:47.062Z,83.33
2023-02-06T08:30:51.351Z,98.47
2023-02-06T08:35:57.825Z,107.40
2023-02-06T08:40:59.844Z,107.67
2023-02-06T08:46:02.773Z,98.43
2023-02-06T08:51:06.574Z,91.00
2023-02-06T08:56:12.391Z,91.27
2023-02-06T09:01:16.607Z,91.93
2023-02-06T09:06:21.956Z,76.27
2023-02-06T09:11:28.898Z,76.60
2023-02-06T09:16:33.198Z,86.50
2023-02-06T09:21:38.052Z,86.63
2023-02-06T09:26:58.923Z,97.77
2023-02-06T09:32:04.650Z,82.70
2023-02-06T09:37:06.410Z,66.80
2023-02-06T09:42:21.344Z,79.83
2023-02-06T09:47:33.007Z,72.90
2023-02-06T09:53:16.421Z,45.77
2023-02-06T09:58:44.461Z,59.07
2023-02-06T10:03:57.027Z,60.17
2023-02-06T10:09:16.179Z,57.80
2023-02-06T10:14:31.592Z,44.23
2023-02-06T10:19:38.281Z,65.10
2023-02-06T10:24:46.491Z,52.00
2023-02-06T10:29:48.571Z,47.67
2023-02-06T10:35:10.646Z,45.63
2023-02-06T10:40:21.089Z,48.20
2023-02-06T10:45:41.749Z,43.77
2023-02-06T10:50:48.787Z,41.77
2023-02-06T10:55:57.501Z,47.10
2023-02-06T11:01:00.853Z,40.77
2023-02-06T11:06:05.379Z,34.33
2023-02-06T11:11:21.750Z,38.07
2023-02-06T11:16:29.322Z,39.37
2023-02-06T11:21:42.205Z,37.57
2023-02-06T11:26:51.276Z,38.33
2023-02-06T11:31:58.757Z,30.90
2023-02-06T11:37:08.971Z,33.60
2023-02-06T11:42:22.415Z,40.07
2023-02-06T11:47:35.064Z,49.53
2023-02-06T11:52:42.197Z,31.63
2023-02-06T11:57:47.030Z,53.73
2023-02-06T12:02:55.613Z,47.23
2023-02-06T12:08:05.614Z,42.33
2023-02-06T12:13:24.825Z,42.57
2023-02-06T12:18:37.578Z,31.93
2023-02-06T12:23:53.337Z,39.03
2023-02-06T12:29:12.130Z,35.17
2023-02-06T12:34:23.027Z,46.67
2023-02-06T12:39:25.724Z,45.60
2023-02-06T12:44:48.192Z,45.50
2023-02-06T12:50:14.279Z,48.80
2023-02-06T12:55:22.951Z,34.77
2023-02-06T13:00:48.925Z,32.67
2023-02-06T13:05:56.576Z,33.93
2023-02-06T13:11:04.490Z,31.70
2023-02-06T13:16:10.723Z,48.70
2023-02-06T13:21:29.733Z,31.53
2023-02-06T13:26:48.801Z,28.77
2023-02-06T13:32:10.543Z,39.83
2023-02-06T13:37:34.202Z,34.07
2023-02-06T13:43:03.549Z,38.23
2023-02-06T13:48:45.041Z,32.37
2023-02-06T13:54:18.428Z,35.60
2023-02-06T13:59:34.050Z,38.73
2023-02-06T14:04:37.500Z,38.10
2023-02-06T14:09:52.957Z,47.07
2023-02-06T14:15:07.510Z,32.10
2023-02-06T14:20:23.007Z,32.00
2023-02-06T14:25:39.566Z,23.90
2023-02-06T14:30:59.305Z,32.90
2023-02-06T14:36:08.084Z,38.87
2023-02-06T14:41:10.258Z,30.27
2023-02-06T14:46:18.562Z,36.70
2023-02-06T14:51:29.436Z,48.00
2023-02-06T14:56:38.819Z,51.77
2023-02-06T15:01:41.437Z,49.37
2023-02-06T15:06:53.249Z,44.07
2023-02-06T15:12:03.037Z,50.83
2023-02-06T15:17:19.406Z,39.63
2023-02-06T15:22:28.003Z,46.60
2023-02-06T15:27:34.063Z,53.00
2023-02-06T15:32:39.488Z,48.37
2023-02-06T15:37:46.629Z,58.10
2023-02-06T15:42:49.053Z,42.33
2023-02-06T15:47:55.358Z,42.13
2023-02-06T15:53:07.216Z,49.03
2023-02-06T15:58:14.589Z,64.33
2023-02-06T16:03:19.297Z,57.13
2023-02-06T16:08:32.104Z,47.90
2023-02-06T16:13:48.022Z,73.57
2023-02-06T16:18:56.278Z,85.77
2023-02-06T16:24:03.274Z,80.23
2023-02-06T16:29:11.356Z,143.70
2023-02-06T16:34:36.772Z,148.17
2023-02-06T16:39:42.246Z,136.57
2023-02-06T16:44:50.070Z,64.13
2023-02-06T16:49:52.350Z,74.67
2023-02-06T16:54:59.404Z,147.07
2023-02-06T17:00:03.516Z,235.60
2023-02-06T17:05:07.697Z,165.30
2023-02-06T17:10:19.591Z,181.73
2023-02-06T17:15:21.490Z,189.30
2023-02-06T17:20:31.113Z,214.70
2023-02-06T17:25:37.978Z,190.10
2023-02-06T17:30:40.996Z,253.53
2023-02-06T17:35:43.555Z,153.47
2023-02-06T17:40:47.770Z,180.20
2023-02-06T17:45:49.511Z,216.27
2023-02-06T17:50:56.988Z,195.70
2023-02-06T17:56:06.948Z,131.80
2023-02-06T18:01:14.009Z,187.20
2023-02-06T18:06:16.356Z,79.03
2023-02-06T18:11:23.245Z,90.43
2023-02-06T18:16:27.232Z,50.67
2023-02-06T18:21:30.969Z,78.87
2023-02-06T18:26:35.807Z,43.33
2023-02-06T18:31:41.245Z,104.67
2023-02-06T18:36:47.978Z,88.43
2023-02-06T18:42:10.485Z,112.43
2023-02-06T18:47:15.964Z,115.47
2023-02-06T18:52:19.933Z,132.10
2023-02-06T18:57:21.686Z,254.83
2023-02-06T19:02:26.424Z,178.60
2023-02-06T19:07:28.724Z,193.80
2023-02-06T19:12:33.036Z,127.53
2023-02-06T19:17:38.006Z,77.10
2023-02-06T19:22:44.272Z,66.43
2023-02-06T19:27:50.799Z,104.17
2023-02-06T19:32:54.117Z,397.70
2023-02-06T19:38:01.862Z,168.27
2023-02-06T19:43:07.574Z,86.53
2023-02-06T19:48:14.668Z,156.73
2023-02-06T19:53:16.987Z,141.63
2023-02-06T19:58:18.895Z,146.50
2023-02-06T20:03:22.732Z,155.73
2023-02-06T20:08:24.684Z,134.57
2023-02-06T20:13:30.516Z,158.60
2023-02-06T20:18:39.737Z,146.13
2023-02-06T20:23:42.878Z,193.87
2023-02-06T20:28:47.235Z,215.17
2023-02-06T20:33:51.396Z,84.33
2023-02-06T20:38:59.731Z,381.90
2023-02-06T20:44:04.029Z,439.90
2023-02-06T20:49:11.098Z,471.20
2023-02-06T20:54:14.973Z,351.10
2023-02-06T20:59:21.881Z,287.20
2023-02-06T21:04:25.876Z,187.30
2023-02-06T21:09:29.168Z,187.07
2023-02-06T21:14:31.031Z,280.80
2023-02-06T21:19:35.681Z,193.47
2023-02-06T21:24:39.319Z,311.47
2023-02-06T21:29:42.124Z,305.87
2023-02-06T21:34:46.213Z,250.20
2023-02-06T21:39:52.851Z,303.20
2023-02-06T21:44:56.875Z,252.37
2023-02-06T21:49:59.487Z,205.83
2023-02-06T21:55:07.487Z,215.33
2023-02-06T22:00:12.430Z,204.63
2023-02-06T22:05:19.125Z,309.77
2023-02-06T22:10:20.785Z,278.53
2023-02-06T22:15:27.024Z,368.70
2023-02-06T22:20:33.526Z,328.77
2023-02-06T22:25:35.560Z,433.23
2023-02-06T22:30:40.878Z,536.43
2023-02-06T22:35:45.025Z,604.37
2023-02-06T22:40:47.144Z,454.17
2023-02-06T22:45:53.267Z,293.83
2023-02-06T22:51:06.694Z,190.23
2023-02-06T22:56:27.297Z,167.10
2023-02-06T23:01:35.373Z,217.47
2023-02-06T23:06:40.167Z,221.90
2023-02-06T23:11:42.077Z,161.97
2023-02-06T23:16:50.100Z,115.00
2023-02-06T23:21:59.151Z,104.73
2023-02-06T23:27:03.404Z,110.43
2023-02-06T23:32:05.525Z,88.50
2023-02-06T23:37:12.191Z,91.67
2023-02-06T23:42:14.415Z,81.43
2023-02-06T23:47:20.878Z,84.47
2023-02-06T23:52:25.284Z,78.03
2023-02-06T23:57:29.691Z,71.00
